sensor_id;sensor_type;location;lat;lon;timestamp;P1;durP1;ratioP1;P2;durP2;ratioP2
54139;SDS011;40046;53.254;5.900;2023-02-28T00:00:12;7.75;;;2.25;;
54139;SDS011;40046;53.254;5.900;2023-02-28T00:02:40;13.20;;;2.03;;
54139;SDS011;40046;53.254;5.900;2023-02-28T00:05:06;9.10;;;2.10;;
54139;SDS011;40046;53.254;5.900;2023-02-28T00:07:33;5.93;;;1.65;;
54139;SDS011;40046;53.254;5.900;2023-02-28T00:09:59;6.53;;;2.28;;
54139;SDS011;40046;53.254;5.900;2023-02-28T00:12:26;6.22;;;2.35;;
54139;SDS011;40046;53.254;5.900;2023-02-28T00:14:52;5.55;;;1.58;;
54139;SDS011;40046;53.254;5.900;2023-02-28T00:17:18;7.55;;;2.72;;
54139;SDS011;40046;53.254;5.900;2023-02-28T00:19:47;10.00;;;2.53;;
54139;SDS011;40046;53.254;5.900;2023-02-28T00:22:13;6.80;;;1.58;;
54139;SDS011;40046;53.254;5.900;2023-02-28T00:24:40;15.23;;;3.08;;
54139;SDS011;40046;53.254;5.900;2023-02-28T00:27:06;7.15;;;2.08;;
54139;SDS011;40046;53.254;5.900;2023-02-28T00:29:32;8.80;;;1.98;;
54139;SDS011;40046;53.254;5.900;2023-02-28T00:31:58;5.53;;;1.65;;
54139;SDS011;40046;53.254;5.900;2023-02-28T00:34:24;9.70;;;1.65;;
54139;SDS011;40046;53.254;5.900;2023-02-28T00:36:51;9.10;;;2.47;;
54139;SDS011;40046;53.254;5.900;2023-02-28T00:39:18;5.15;;;2.25;;
54139;SDS011;40046;53.254;5.900;2023-02-28T00:41:44;7.45;;;3.13;;
54139;SDS011;40046;53.254;5.900;2023-02-28T00:44:10;7.38;;;2.42;;
54139;SDS011;40046;53.254;5.900;2023-02-28T00:46:36;8.52;;;2.42;;
54139;SDS011;40046;53.254;5.900;2023-02-28T00:49:02;6.70;;;2.90;;
54139;SDS011;40046;53.254;5.900;2023-02-28T00:51:28;5.80;;;2.08;;
54139;SDS011;40046;53.254;5.900;2023-02-28T00:53:56;8.05;;;2.58;;
54139;SDS011;40046;53.254;5.900;2023-02-28T00:56:22;8.45;;;2.15;;
54139;SDS011;40046;53.254;5.900;2023-02-28T00:58:49;7.05;;;2.65;;
54139;SDS011;40046;53.254;5.900;2023-02-28T01:01:15;6.60;;;2.38;;
54139;SDS011;40046;53.254;5.900;2023-02-28T01:03:43;6.03;;;1.98;;
54139;SDS011;40046;53.254;5.900;2023-02-28T01:06:09;8.40;;;2.75;;
54139;SDS011;40046;53.254;5.900;2023-02-28T01:08:37;9.07;;;1.73;;
54139;SDS011;40046;53.254;5.900;2023-02-28T01:11:07;8.32;;;2.20;;
54139;SDS011;40046;53.254;5.900;2023-02-28T01:13:33;11.07;;;3.60;;
54139;SDS011;40046;53.254;5.900;2023-02-28T01:15:59;4.65;;;2.33;;
54139;SDS011;40046;53.254;5.900;2023-02-28T01:18:26;10.13;;;3.13;;
54139;SDS011;40046;53.254;5.900;2023-02-28T01:20:52;4.60;;;1.65;;
54139;SDS011;40046;53.254;5.900;2023-02-28T01:23:19;8.35;;;1.85;;
54139;SDS011;40046;53.254;5.900;2023-02-28T01:25:46;6.40;;;2.00;;
54139;SDS011;40046;53.254;5.900;2023-02-28T01:28:12;7.28;;;2.53;;
54139;SDS011;40046;53.254;5.900;2023-02-28T01:30:38;7.07;;;1.85;;
54139;SDS011;40046;53.254;5.900;2023-02-28T01:33:05;8.55;;;3.13;;
54139;SDS011;40046;53.254;5.900;2023-02-28T01:35:32;13.35;;;4.00;;
54139;SDS011;40046;53.254;5.900;2023-02-28T01:37:58;11.95;;;4.57;;
54139;SDS011;40046;53.254;5.900;2023-02-28T01:40:25;13.02;;;5.15;;
54139;SDS011;40046;53.254;5.900;2023-02-28T01:42:51;13.13;;;3.17;;
54139;SDS011;40046;53.254;5.900;2023-02-28T01:47:45;6.45;;;2.90;;
54139;SDS011;40046;53.254;5.900;2023-02-28T01:50:18;8.15;;;2.70;;
54139;SDS011;40046;53.254;5.900;2023-02-28T01:52:45;11.35;;;3.05;;
54139;SDS011;40046;53.254;5.900;2023-02-28T01:55:12;11.32;;;2.47;;
54139;SDS011;40046;53.254;5.900;2023-02-28T01:57:40;10.48;;;2.35;;
54139;SDS011;40046;53.254;5.900;2023-02-28T02:00:09;6.90;;;2.13;;
54139;SDS011;40046;53.254;5.900;2023-02-28T02:02:38;5.07;;;1.27;;
54139;SDS011;40046;53.254;5.900;2023-02-28T02:07:32;7.35;;;2.10;;
54139;SDS011;40046;53.254;5.900;2023-02-28T02:10:00;13.80;;;2.45;;
54139;SDS011;40046;53.254;5.900;2023-02-28T02:12:37;4.78;;;1.77;;
54139;SDS011;40046;53.254;5.900;2023-02-28T02:15:16;7.03;;;3.05;;
54139;SDS011;40046;53.254;5.900;2023-02-28T02:17:44;5.72;;;1.98;;
54139;SDS011;40046;53.254;5.900;2023-02-28T02:23:02;17.77;;;1.87;;
54139;SDS011;40046;53.254;5.900;2023-02-28T02:30:46;7.88;;;2.70;;
54139;SDS011;40046;53.254;5.900;2023-02-28T02:36:10;9.32;;;2.10;;
54139;SDS011;40046;53.254;5.900;2023-02-28T02:44:11;9.15;;;1.60;;
54139;SDS011;40046;53.254;5.900;2023-02-28T02:46:42;8.27;;;2.17;;
54139;SDS011;40046;53.254;5.900;2023-02-28T02:49:11;4.57;;;1.80;;
54139;SDS011;40046;53.254;5.900;2023-02-28T02:51:39;6.60;;;2.17;;
54139;SDS011;40046;53.254;5.900;2023-02-28T02:54:28;8.48;;;3.08;;
54139;SDS011;40046;53.254;5.900;2023-02-28T02:56:57;4.97;;;1.50;;
54139;SDS011;40046;53.254;5.900;2023-02-28T02:59:25;7.25;;;1.70;;
54139;SDS011;40046;53.254;5.900;2023-02-28T03:01:55;9.18;;;2.53;;
54139;SDS011;40046;53.254;5.900;2023-02-28T03:04:23;8.48;;;2.17;;
54139;SDS011;40046;53.254;5.900;2023-02-28T03:06:50;7.32;;;2.47;;
54139;SDS011;40046;53.254;5.900;2023-02-28T03:09:21;10.32;;;4.70;;
54139;SDS011;40046;53.254;5.900;2023-02-28T03:11:47;8.30;;;4.82;;
54139;SDS011;40046;53.254;5.900;2023-02-28T03:14:25;7.25;;;4.03;;
54139;SDS011;40046;53.254;5.900;2023-02-28T03:21:56;10.07;;;3.17;;
54139;SDS011;40046;53.254;5.900;2023-02-28T03:26:57;6.57;;;2.65;;
54139;SDS011;40046;53.254;5.900;2023-02-28T03:29:32;4.70;;;1.60;;
54139;SDS011;40046;53.254;5.900;2023-02-28T03:32:02;9.23;;;2.35;;
54139;SDS011;40046;53.254;5.900;2023-02-28T03:34:31;7.00;;;1.92;;
54139;SDS011;40046;53.254;5.900;2023-02-28T03:37:00;9.10;;;2.08;;
54139;SDS011;40046;53.254;5.900;2023-02-28T03:39:35;4.75;;;2.42;;
54139;SDS011;40046;53.254;5.900;2023-02-28T03:42:24;3.03;;;1.23;;
54139;SDS011;40046;53.254;5.900;2023-02-28T03:44:51;6.47;;;1.35;;
54139;SDS011;40046;53.254;5.900;2023-02-28T03:47:21;6.22;;;1.85;;
54139;SDS011;40046;53.254;5.900;2023-02-28T03:49:51;6.05;;;2.13;;
54139;SDS011;40046;53.254;5.900;2023-02-28T03:52:19;5.22;;;1.30;;
54139;SDS011;40046;53.254;5.900;2023-02-28T03:54:51;7.65;;;1.25;;
54139;SDS011;40046;53.254;5.900;2023-02-28T03:57:34;2.25;;;1.23;;
54139;SDS011;40046;53.254;5.900;2023-02-28T04:00:07;6.78;;;1.92;;
54139;SDS011;40046;53.254;5.900;2023-02-28T04:02:40;3.85;;;1.05;;
54139;SDS011;40046;53.254;5.900;2023-02-28T04:05:07;3.97;;;0.98;;
54139;SDS011;40046;53.254;5.900;2023-02-28T04:07:33;3.42;;;1.33;;
54139;SDS011;40046;53.254;5.900;2023-02-28T04:09:59;2.70;;;1.30;;
54139;SDS011;40046;53.254;5.900;2023-02-28T04:12:25;5.40;;;2.42;;
54139;SDS011;40046;53.254;5.900;2023-02-28T04:14:52;5.72;;;1.27;;
54139;SDS011;40046;53.254;5.900;2023-02-28T04:17:18;8.90;;;1.60;;
54139;SDS011;40046;53.254;5.900;2023-02-28T04:19:44;4.15;;;1.35;;
54139;SDS011;40046;53.254;5.900;2023-02-28T04:22:10;5.25;;;1.15;;
54139;SDS011;40046;53.254;5.900;2023-02-28T04:24:36;6.53;;;1.40;;
54139;SDS011;40046;53.254;5.900;2023-02-28T04:27:06;8.95;;;1.60;;
54139;SDS011;40046;53.254;5.900;2023-02-28T04:29:32;8.70;;;1.67;;
54139;SDS011;40046;53.254;5.900;2023-02-28T04:31:59;8.68;;;1.60;;
54139;SDS011;40046;53.254;5.900;2023-02-28T04:34:25;7.40;;;3.42;;
54139;SDS011;40046;53.254;5.900;2023-02-28T04:36:52;3.97;;;1.15;;
54139;SDS011;40046;53.254;5.900;2023-02-28T04:39:22;5.95;;;2.38;;
54139;SDS011;40046;53.254;5.900;2023-02-28T04:41:49;15.70;;;2.33;;
54139;SDS011;40046;53.254;5.900;2023-02-28T04:44:15;5.45;;;1.40;;
54139;SDS011;40046;53.254;5.900;2023-02-28T04:46:41;5.97;;;1.85;;
54139;SDS011;40046;53.254;5.900;2023-02-28T04:49:09;8.98;;;2.25;;
54139;SDS011;40046;53.254;5.900;2023-02-28T04:51:36;8.85;;;1.70;;
54139;SDS011;40046;53.254;5.900;2023-02-28T04:54:03;10.02;;;2.88;;
54139;SDS011;40046;53.254;5.900;2023-02-28T04:56:29;6.30;;;2.75;;
54139;SDS011;40046;53.254;5.900;2023-02-28T04:58:55;8.23;;;1.70;;
54139;SDS011;40046;53.254;5.900;2023-02-28T05:01:28;7.93;;;1.98;;
54139;SDS011;40046;53.254;5.900;2023-02-28T05:03:55;14.98;;;1.85;;
54139;SDS011;40046;53.254;5.900;2023-02-28T05:06:23;9.30;;;2.33;;
54139;SDS011;40046;53.254;5.900;2023-02-28T05:08:49;6.43;;;1.65;;
54139;SDS011;40046;53.254;5.900;2023-02-28T05:13:41;10.00;;;1.63;;
54139;SDS011;40046;53.254;5.900;2023-02-28T05:16:08;8.80;;;1.90;;
54139;SDS011;40046;53.254;5.900;2023-02-28T05:18:34;7.32;;;1.83;;
54139;SDS011;40046;53.254;5.900;2023-02-28T05:21:00;6.28;;;2.15;;
54139;SDS011;40046;53.254;5.900;2023-02-28T05:23:27;8.73;;;1.88;;
54139;SDS011;40046;53.254;5.900;2023-02-28T05:25:53;12.80;;;1.80;;
54139;SDS011;40046;53.254;5.900;2023-02-28T05:28:20;8.40;;;1.63;;
54139;SDS011;40046;53.254;5.900;2023-02-28T05:30:46;9.55;;;2.10;;
54139;SDS011;40046;53.254;5.900;2023-02-28T05:33:13;7.47;;;1.67;;
54139;SDS011;40046;53.254;5.900;2023-02-28T05:35:42;9.95;;;1.77;;
54139;SDS011;40046;53.254;5.900;2023-02-28T05:38:08;10.02;;;1.90;;
54139;SDS011;40046;53.254;5.900;2023-02-28T05:40:34;9.20;;;1.80;;
54139;SDS011;40046;53.254;5.900;2023-02-28T05:43:00;12.70;;;2.92;;
54139;SDS011;40046;53.254;5.900;2023-02-28T05:45:27;16.67;;;2.53;;
54139;SDS011;40046;53.254;5.900;2023-02-28T05:47:53;9.60;;;3.75;;
54139;SDS011;40046;53.254;5.900;2023-02-28T05:50:19;13.07;;;2.47;;
54139;SDS011;40046;53.254;5.900;2023-02-28T05:52:49;10.27;;;3.50;;
54139;SDS011;40046;53.254;5.900;2023-02-28T05:55:15;15.73;;;2.08;;
54139;SDS011;40046;53.254;5.900;2023-02-28T05:57:42;12.68;;;2.28;;
54139;SDS011;40046;53.254;5.900;2023-02-28T06:00:08;10.88;;;1.52;;
54139;SDS011;40046;53.254;5.900;2023-02-28T06:02:38;10.82;;;1.65;;
54139;SDS011;40046;53.254;5.900;2023-02-28T06:05:07;10.55;;;1.70;;
54139;SDS011;40046;53.254;5.900;2023-02-28T06:07:34;9.13;;;1.90;;
54139;SDS011;40046;53.254;5.900;2023-02-28T06:10:01;6.05;;;2.58;;
54139;SDS011;40046;53.254;5.900;2023-02-28T06:12:27;11.18;;;2.28;;
54139;SDS011;40046;53.254;5.900;2023-02-28T06:15:01;10.43;;;3.80;;
54139;SDS011;40046;53.254;5.900;2023-02-28T06:17:27;9.57;;;4.80;;
54139;SDS011;40046;53.254;5.900;2023-02-28T06:19:53;7.20;;;5.25;;
54139;SDS011;40046;53.254;5.900;2023-02-28T06:22:19;9.80;;;5.13;;
54139;SDS011;40046;53.254;5.900;2023-02-28T06:24:45;8.50;;;4.82;;
54139;SDS011;40046;53.254;5.900;2023-02-28T06:27:12;11.45;;;6.20;;
54139;SDS011;40046;53.254;5.900;2023-02-28T06:29:38;13.23;;;5.07;;
54139;SDS011;40046;53.254;5.900;2023-02-28T06:32:07;9.55;;;4.97;;
54139;SDS011;40046;53.254;5.900;2023-02-28T06:34:33;7.05;;;4.88;;
54139;SDS011;40046;53.254;5.900;2023-02-28T06:36:59;6.50;;;4.70;;
54139;SDS011;40046;53.254;5.900;2023-02-28T06:39:28;7.22;;;4.80;;
54139;SDS011;40046;53.254;5.900;2023-02-28T06:41:54;6.65;;;4.22;;
54139;SDS011;40046;53.254;5.900;2023-02-28T06:44:20;4.97;;;3.60;;
54139;SDS011;40046;53.254;5.900;2023-02-28T06:46:46;6.13;;;3.75;;
54139;SDS011;40046;53.254;5.900;2023-02-28T06:49:13;5.03;;;3.53;;
54139;SDS011;40046;53.254;5.900;2023-02-28T06:51:40;5.82;;;3.65;;
54139;SDS011;40046;53.254;5.900;2023-02-28T06:54:06;7.20;;;3.17;;
54139;SDS011;40046;53.254;5.900;2023-02-28T06:56:36;5.05;;;3.53;;
54139;SDS011;40046;53.254;5.900;2023-02-28T06:59:02;5.25;;;3.60;;
54139;SDS011;40046;53.254;5.900;2023-02-28T07:01:29;5.75;;;4.07;;
54139;SDS011;40046;53.254;5.900;2023-02-28T07:03:56;6.65;;;3.67;;
54139;SDS011;40046;53.254;5.900;2023-02-28T07:06:23;8.07;;;4.10;;
54139;SDS011;40046;53.254;5.900;2023-02-28T07:08:50;6.10;;;4.18;;
54139;SDS011;40046;53.254;5.900;2023-02-28T07:11:20;5.05;;;4.07;;
54139;SDS011;40046;53.254;5.900;2023-02-28T07:13:48;5.47;;;4.15;;
54139;SDS011;40046;53.254;5.900;2023-02-28T07:16:14;6.05;;;4.38;;
54139;SDS011;40046;53.254;5.900;2023-02-28T07:18:40;5.85;;;3.65;;
54139;SDS011;40046;53.254;5.900;2023-02-28T07:21:08;5.65;;;4.15;;
54139;SDS011;40046;53.254;5.900;2023-02-28T07:23:34;7.22;;;4.75;;
54139;SDS011;40046;53.254;5.900;2023-02-28T07:26:03;8.38;;;5.60;;
54139;SDS011;40046;53.254;5.900;2023-02-28T07:28:29;9.18;;;5.85;;
54139;SDS011;40046;53.254;5.900;2023-02-28T07:30:55;8.27;;;6.03;;
54139;SDS011;40046;53.254;5.900;2023-02-28T07:33:22;11.95;;;6.85;;
54139;SDS011;40046;53.254;5.900;2023-02-28T07:35:49;10.00;;;7.63;;
54139;SDS011;40046;53.254;5.900;2023-02-28T07:38:15;10.27;;;7.25;;
54139;SDS011;40046;53.254;5.900;2023-02-28T07:40:41;15.40;;;6.97;;
54139;SDS011;40046;53.254;5.900;2023-02-28T07:43:07;10.25;;;7.93;;
54139;SDS011;40046;53.254;5.900;2023-02-28T07:45:33;10.65;;;7.18;;
54139;SDS011;40046;53.254;5.900;2023-02-28T07:48:00;11.23;;;7.28;;
54139;SDS011;40046;53.254;5.900;2023-02-28T07:50:26;10.13;;;7.78;;
54139;SDS011;40046;53.254;5.900;2023-02-28T07:52:57;10.10;;;8.20;;
54139;SDS011;40046;53.254;5.900;2023-02-28T07:55:23;9.80;;;7.85;;
54139;SDS011;40046;53.254;5.900;2023-02-28T07:57:49;11.38;;;8.43;;
54139;SDS011;40046;53.254;5.900;2023-02-28T08:00:16;9.77;;;7.38;;
54139;SDS011;40046;53.254;5.900;2023-02-28T08:02:42;9.77;;;7.53;;
54139;SDS011;40046;53.254;5.900;2023-02-28T08:05:08;12.85;;;8.50;;
54139;SDS011;40046;53.254;5.900;2023-02-28T08:07:35;12.50;;;9.43;;
54139;SDS011;40046;53.254;5.900;2023-02-28T08:10:01;11.57;;;8.10;;
54139;SDS011;40046;53.254;5.900;2023-02-28T08:12:27;11.65;;;10.20;;
54139;SDS011;40046;53.254;5.900;2023-02-28T08:14:53;12.50;;;8.38;;
54139;SDS011;40046;53.254;5.900;2023-02-28T08:17:19;12.40;;;8.88;;
54139;SDS011;40046;53.254;5.900;2023-02-28T08:19:45;10.77;;;8.40;;
54139;SDS011;40046;53.254;5.900;2023-02-28T08:22:12;10.35;;;8.35;;
54139;SDS011;40046;53.254;5.900;2023-02-28T08:24:39;12.63;;;9.20;;
54139;SDS011;40046;53.254;5.900;2023-02-28T08:27:06;10.85;;;8.45;;
54139;SDS011;40046;53.254;5.900;2023-02-28T08:29:33;14.15;;;9.48;;
54139;SDS011;40046;53.254;5.900;2023-02-28T08:31:59;14.45;;;9.60;;
54139;SDS011;40046;53.254;5.900;2023-02-28T08:34:25;11.30;;;8.70;;
54139;SDS011;40046;53.254;5.900;2023-02-28T08:36:51;12.43;;;9.07;;
54139;SDS011;40046;53.254;5.900;2023-02-28T08:39:18;12.13;;;9.65;;
54139;SDS011;40046;53.254;5.900;2023-02-28T08:41:45;12.30;;;9.20;;
54139;SDS011;40046;53.254;5.900;2023-02-28T08:44:11;17.50;;;11.55;;
54139;SDS011;40046;53.254;5.900;2023-02-28T08:46:37;13.45;;;10.07;;
54139;SDS011;40046;53.254;5.900;2023-02-28T08:49:04;11.07;;;9.43;;
54139;SDS011;40046;53.254;5.900;2023-02-28T08:51:30;14.23;;;10.65;;
54139;SDS011;40046;53.254;5.900;2023-02-28T08:53:59;17.13;;;10.60;;
54139;SDS011;40046;53.254;5.900;2023-02-28T08:56:26;15.75;;;10.30;;
54139;SDS011;40046;53.254;5.900;2023-02-28T08:58:53;12.20;;;9.82;;
54139;SDS011;40046;53.254;5.900;2023-02-28T09:01:27;14.18;;;10.50;;
54139;SDS011;40046;53.254;5.900;2023-02-28T09:03:54;13.77;;;10.10;;
54139;SDS011;40046;53.254;5.900;2023-02-28T09:06:21;14.50;;;10.15;;
54139;SDS011;40046;53.254;5.900;2023-02-28T09:08:47;12.77;;;10.00;;
54139;SDS011;40046;53.254;5.900;2023-02-28T09:11:14;15.35;;;10.50;;
54139;SDS011;40046;53.254;5.900;2023-02-28T09:13:40;13.70;;;10.98;;
54139;SDS011;40046;53.254;5.900;2023-02-28T09:16:07;13.30;;;10.68;;
54139;SDS011;40046;53.254;5.900;2023-02-28T09:18:34;13.40;;;10.82;;
54139;SDS011;40046;53.254;5.900;2023-02-28T09:21:06;14.65;;;10.75;;
54139;SDS011;40046;53.254;5.900;2023-02-28T09:23:32;12.60;;;10.23;;
54139;SDS011;40046;53.254;5.900;2023-02-28T09:25:58;13.43;;;9.93;;
54139;SDS011;40046;53.254;5.900;2023-02-28T09:28:24;11.63;;;9.38;;
54139;SDS011;40046;53.254;5.900;2023-02-28T09:30:52;14.27;;;10.35;;
54139;SDS011;40046;53.254;5.900;2023-02-28T09:33:18;13.40;;;10.88;;
54139;SDS011;40046;53.254;5.900;2023-02-28T09:35:48;15.43;;;9.55;;
54139;SDS011;40046;53.254;5.900;2023-02-28T09:38:15;12.15;;;9.48;;
54139;SDS011;40046;53.254;5.900;2023-02-28T09:43:11;13.98;;;10.45;;
54139;SDS011;40046;53.254;5.900;2023-02-28T09:45:39;13.27;;;10.30;;
54139;SDS011;40046;53.254;5.900;2023-02-28T09:48:10;13.30;;;10.38;;
54139;SDS011;40046;53.254;5.900;2023-02-28T09:50:38;14.68;;;10.73;;
54139;SDS011;40046;53.254;5.900;2023-02-28T09:53:13;11.10;;;9.27;;
54139;SDS011;40046;53.254;5.900;2023-02-28T09:55:45;13.55;;;9.35;;
54139;SDS011;40046;53.254;5.900;2023-02-28T09:58:23;12.40;;;9.50;;
54139;SDS011;40046;53.254;5.900;2023-02-28T10:01:00;12.40;;;9.35;;
54139;SDS011;40046;53.254;5.900;2023-02-28T10:04:16;12.45;;;9.40;;
54139;SDS011;40046;53.254;5.900;2023-02-28T10:06:17;12.55;;;8.80;;
54139;SDS011;40046;53.254;5.900;2023-02-28T10:08:47;14.93;;;9.50;;
54139;SDS011;40046;53.254;5.900;2023-02-28T10:11:17;12.55;;;8.05;;
54139;SDS011;40046;53.254;5.900;2023-02-28T10:16:37;9.18;;;7.13;;
54139;SDS011;40046;53.254;5.900;2023-02-28T10:19:06;10.95;;;7.95;;
54139;SDS011;40046;53.254;5.900;2023-02-28T10:21:41;11.05;;;7.35;;
54139;SDS011;40046;53.254;5.900;2023-02-28T10:26:35;14.48;;;8.05;;
54139;SDS011;40046;53.254;5.900;2023-02-28T10:29:02;11.30;;;8.00;;
54139;SDS011;40046;53.254;5.900;2023-02-28T10:31:28;9.70;;;7.20;;
54139;SDS011;40046;53.254;5.900;2023-02-28T10:33:55;10.25;;;6.75;;
54139;SDS011;40046;53.254;5.900;2023-02-28T10:36:21;10.35;;;6.82;;
54139;SDS011;40046;53.254;5.900;2023-02-28T10:38:47;10.75;;;7.15;;
54139;SDS011;40046;53.254;5.900;2023-02-28T10:41:15;11.57;;;7.50;;
54139;SDS011;40046;53.254;5.900;2023-02-28T10:43:42;9.57;;;6.93;;
54139;SDS011;40046;53.254;5.900;2023-02-28T10:51:22;9.85;;;6.65;;
54139;SDS011;40046;53.254;5.900;2023-02-28T10:53:49;22.48;;;8.98;;
54139;SDS011;40046;53.254;5.900;2023-02-28T10:56:20;10.00;;;5.35;;
54139;SDS011;40046;53.254;5.900;2023-02-28T11:01:23;9.80;;;4.90;;
54139;SDS011;40046;53.254;5.900;2023-02-28T11:03:50;7.95;;;4.82;;
54139;SDS011;40046;53.254;5.900;2023-02-28T11:06:21;7.57;;;5.13;;
54139;SDS011;40046;53.254;5.900;2023-02-28T11:09:06;9.27;;;5.82;;
54139;SDS011;40046;53.254;5.900;2023-02-28T11:11:44;7.10;;;4.97;;
54139;SDS011;40046;53.254;5.900;2023-02-28T11:14:19;9.77;;;5.43;;
54139;SDS011;40046;53.254;5.900;2023-02-28T11:16:46;8.77;;;5.32;;
54139;SDS011;40046;53.254;5.900;2023-02-28T11:19:17;10.65;;;5.28;;
54139;SDS011;40046;53.254;5.900;2023-02-28T11:21:48;9.70;;;5.45;;
54139;SDS011;40046;53.254;5.900;2023-02-28T11:26:44;8.38;;;4.78;;
54139;SDS011;40046;53.254;5.900;2023-02-28T11:29:19;8.23;;;4.45;;
54139;SDS011;40046;53.254;5.900;2023-02-28T11:34:27;8.20;;;4.53;;
54139;SDS011;40046;53.254;5.900;2023-02-28T11:36:54;7.20;;;4.70;;
54139;SDS011;40046;53.254;5.900;2023-02-28T11:39:21;7.00;;;4.00;;
54139;SDS011;40046;53.254;5.900;2023-02-28T11:44:23;8.18;;;5.47;;
54139;SDS011;40046;53.254;5.900;2023-02-28T11:47:38;9.60;;;5.32;;
54139;SDS011;40046;53.254;5.900;2023-02-28T11:52:34;7.20;;;4.32;;
54139;SDS011;40046;53.254;5.900;2023-02-28T11:55:07;8.50;;;4.32;;
54139;SDS011;40046;53.254;5.900;2023-02-28T12:05:42;9.48;;;4.03;;
54139;SDS011;40046;53.254;5.900;2023-02-28T12:21:17;6.13;;;4.00;;
54139;SDS011;40046;53.254;5.900;2023-02-28T12:26:31;9.32;;;4.40;;
54139;SDS011;40046;53.254;5.900;2023-02-28T12:29:09;9.30;;;3.90;;
54139;SDS011;40046;53.254;5.900;2023-02-28T12:31:36;8.10;;;4.18;;
54139;SDS011;40046;53.254;5.900;2023-02-28T12:34:09;5.93;;;3.85;;
54139;SDS011;40046;53.254;5.900;2023-02-28T12:36:38;9.65;;;4.00;;
54139;SDS011;40046;53.254;5.900;2023-02-28T12:39:09;7.25;;;3.95;;
54139;SDS011;40046;53.254;5.900;2023-02-28T12:41:39;7.13;;;4.28;;
54139;SDS011;40046;53.254;5.900;2023-02-28T12:44:30;8.23;;;4.15;;
54139;SDS011;40046;53.254;5.900;2023-02-28T12:46:55;8.38;;;3.70;;
54139;SDS011;40046;53.254;5.900;2023-02-28T12:49:27;9.48;;;4.40;;
54139;SDS011;40046;53.254;5.900;2023-02-28T12:51:56;9.00;;;3.80;;
54139;SDS011;40046;53.254;5.900;2023-02-28T12:56:59;6.65;;;3.78;;
54139;SDS011;40046;53.254;5.900;2023-02-28T13:04:52;7.68;;;4.32;;
54139;SDS011;40046;53.254;5.900;2023-02-28T13:10:06;7.57;;;4.03;;
54139;SDS011;40046;53.254;5.900;2023-02-28T13:12:34;7.43;;;4.72;;
54139;SDS011;40046;53.254;5.900;2023-02-28T13:15:22;9.18;;;4.38;;
54139;SDS011;40046;53.254;5.900;2023-02-28T13:17:50;7.43;;;4.55;;
54139;SDS011;40046;53.254;5.900;2023-02-28T13:20:21;6.43;;;4.10;;
54139;SDS011;40046;53.254;5.900;2023-02-28T13:22:50;5.95;;;3.33;;
54139;SDS011;40046;53.254;5.900;2023-02-28T13:28:03;7.18;;;4.45;;
54139;SDS011;40046;53.254;5.900;2023-02-28T13:46:26;6.13;;;3.35;;
54139;SDS011;40046;53.254;5.900;2023-02-28T13:48:52;7.05;;;3.85;;
54139;SDS011;40046;53.254;5.900;2023-02-28T13:51:52;7.38;;;4.05;;
54139;SDS011;40046;53.254;5.900;2023-02-28T13:57:35;8.88;;;3.67;;
54139;SDS011;40046;53.254;5.900;2023-02-28T14:05:21;5.90;;;3.78;;
54139;SDS011;40046;53.254;5.900;2023-02-28T14:07:57;10.95;;;4.72;;
54139;SDS011;40046;53.254;5.900;2023-02-28T14:10:31;7.40;;;3.80;;
54139;SDS011;40046;53.254;5.900;2023-02-28T14:18:02;7.60;;;4.15;;
54139;SDS011;40046;53.254;5.900;2023-02-28T14:20:30;6.82;;;4.30;;
54139;SDS011;40046;53.254;5.900;2023-02-28T14:23:10;6.43;;;3.40;;
54139;SDS011;40046;53.254;5.900;2023-02-28T14:25:42;8.13;;;5.32;;
54139;SDS011;40046;53.254;5.900;2023-02-28T14:28:25;7.47;;;3.90;;
54139;SDS011;40046;53.254;5.900;2023-02-28T14:33:59;6.10;;;4.20;;
54139;SDS011;40046;53.254;5.900;2023-02-28T14:36:33;13.95;;;7.57;;
54139;SDS011;40046;53.254;5.900;2023-02-28T14:39:04;8.18;;;4.50;;
54139;SDS011;40046;53.254;5.900;2023-02-28T14:41:32;6.45;;;4.65;;
54139;SDS011;40046;53.254;5.900;2023-02-28T14:44:13;8.43;;;4.60;;
54139;SDS011;40046;53.254;5.900;2023-02-28T14:46:40;9.30;;;4.53;;
54139;SDS011;40046;53.254;5.900;2023-02-28T14:49:12;6.20;;;4.20;;
54139;SDS011;40046;53.254;5.900;2023-02-28T14:51:39;8.10;;;4.47;;
54139;SDS011;40046;53.254;5.900;2023-02-28T14:54:05;6.93;;;4.35;;
54139;SDS011;40046;53.254;5.900;2023-02-28T14:56:35;6.57;;;4.53;;
54139;SDS011;40046;53.254;5.900;2023-02-28T14:59:02;6.28;;;3.70;;
54139;SDS011;40046;53.254;5.900;2023-02-28T15:01:29;6.95;;;4.70;;
54139;SDS011;40046;53.254;5.900;2023-02-28T15:04:01;9.25;;;4.68;;
54139;SDS011;40046;53.254;5.900;2023-02-28T15:06:28;8.70;;;4.30;;
54139;SDS011;40046;53.254;5.900;2023-02-28T15:09:07;8.10;;;4.50;;
54139;SDS011;40046;53.254;5.900;2023-02-28T15:11:33;8.10;;;4.68;;
54139;SDS011;40046;53.254;5.900;2023-02-28T15:14:01;6.72;;;3.88;;
54139;SDS011;40046;53.254;5.900;2023-02-28T15:16:29;7.68;;;4.57;;
54139;SDS011;40046;53.254;5.900;2023-02-28T15:18:59;7.00;;;4.28;;
54139;SDS011;40046;53.254;5.900;2023-02-28T15:21:28;8.60;;;4.70;;
54139;SDS011;40046;53.254;5.900;2023-02-28T15:23:59;6.25;;;3.90;;
54139;SDS011;40046;53.254;5.900;2023-02-28T15:26:29;6.88;;;3.97;;
54139;SDS011;40046;53.254;5.900;2023-02-28T15:29:08;5.97;;;3.55;;
54139;SDS011;40046;53.254;5.900;2023-02-28T15:31:41;5.88;;;3.08;;
54139;SDS011;40046;53.254;5.900;2023-02-28T15:34:19;6.88;;;3.22;;
54139;SDS011;40046;53.254;5.900;2023-02-28T15:36:47;5.68;;;3.03;;
54139;SDS011;40046;53.254;5.900;2023-02-28T15:39:21;6.80;;;3.00;;
54139;SDS011;40046;53.254;5.900;2023-02-28T15:41:47;7.13;;;2.97;;
54139;SDS011;40046;53.254;5.900;2023-02-28T15:44:33;7.07;;;3.47;;
54139;SDS011;40046;53.254;5.900;2023-02-28T15:47:04;5.13;;;2.88;;
54139;SDS011;40046;53.254;5.900;2023-02-28T15:52:16;4.90;;;2.80;;
54139;SDS011;40046;53.254;5.900;2023-02-28T15:54:43;6.25;;;3.40;;
54139;SDS011;40046;53.254;5.900;2023-02-28T15:57:13;5.63;;;4.07;;
54139;SDS011;40046;53.254;5.900;2023-02-28T15:59:39;6.38;;;3.70;;
54139;SDS011;40046;53.254;5.900;2023-02-28T16:04:37;5.10;;;3.33;;
54139;SDS011;40046;53.254;5.900;2023-02-28T16:07:20;6.25;;;3.60;;
54139;SDS011;40046;53.254;5.900;2023-02-28T16:09:46;7.22;;;4.38;;
54139;SDS011;40046;53.254;5.900;2023-02-28T16:12:13;6.78;;;4.72;;
54139;SDS011;40046;53.254;5.900;2023-02-28T16:14:39;7.85;;;5.45;;
54139;SDS011;40046;53.254;5.900;2023-02-28T16:17:13;9.13;;;5.30;;
54139;SDS011;40046;53.254;5.900;2023-02-28T16:19:42;7.93;;;4.32;;
54139;SDS011;40046;53.254;5.900;2023-02-28T16:22:09;7.80;;;5.45;;
54139;SDS011;40046;53.254;5.900;2023-02-28T16:24:35;7.55;;;5.38;;
54139;SDS011;40046;53.254;5.900;2023-02-28T16:27:03;7.10;;;5.30;;
54139;SDS011;40046;53.254;5.900;2023-02-28T16:29:34;8.45;;;5.28;;
54139;SDS011;40046;53.254;5.900;2023-02-28T16:32:01;8.75;;;5.20;;
54139;SDS011;40046;53.254;5.900;2023-02-28T16:34:29;7.85;;;5.10;;
54139;SDS011;40046;53.254;5.900;2023-02-28T16:36:55;9.02;;;6.00;;
54139;SDS011;40046;53.254;5.900;2023-02-28T16:39:22;9.82;;;5.78;;
54139;SDS011;40046;53.254;5.900;2023-02-28T16:41:48;7.13;;;5.18;;
54139;SDS011;40046;53.254;5.900;2023-02-28T16:44:21;8.40;;;5.22;;
54139;SDS011;40046;53.254;5.900;2023-02-28T16:46:49;9.23;;;4.95;;
54139;SDS011;40046;53.254;5.900;2023-02-28T16:49:15;9.85;;;6.40;;
54139;SDS011;40046;53.254;5.900;2023-02-28T16:51:41;10.23;;;6.45;;
54139;SDS011;40046;53.254;5.900;2023-02-28T16:54:08;8.50;;;5.43;;
54139;SDS011;40046;53.254;5.900;2023-02-28T16:56:34;9.38;;;5.78;;
54139;SDS011;40046;53.254;5.900;2023-02-28T16:59:00;7.63;;;5.43;;
54139;SDS011;40046;53.254;5.900;2023-02-28T17:01:27;11.45;;;5.95;;
54139;SDS011;40046;53.254;5.900;2023-02-28T17:03:54;9.95;;;5.60;;